Time;durP1;ratioP1;P1;durP2;ratioP2;P2;SDS_P1;SDS_P2;PMS_P1;PMS_P2;Temp;Humidity;BMP_temperature;BMP_pressure;BME280_temperature;BME280_humidity;BME280_pressure;Samples;Min_cycle;Max_cycle;Signal;HPM_P1;HPM_P2
2023/05/05 00:00:50;;;;;;;11.43;7.33;;;;;;;11.27;100.00;94066.84;4799917;29;20061;-62
2023/05/05 00:03:19;;;;;;;11.18;7.35;;;;;;;11.23;100.00;94070.81;4801726;29;20054;-59
2023/05/05 00:05:47;;;;;;;12.50;7.78;;;;;;;11.15;100.00;94072.91;4800862;29;20077;-63
2023/05/05 00:08:14;;;;;;;12.57;7.95;;;;;;;11.12;100.00;94068.25;4801518;29;20063;-59
2023/05/05 00:10:44;;;;;;;12.65;8.23;;;;;;;11.11;100.00;94064.72;4800496;29;20058;-59
2023/05/05 00:13:11;;;;;;;12.00;8.13;;;;;;;11.05;100.00;94062.88;4801747;29;20077;-59
2023/05/05 00:15:42;;;;;;;13.15;8.02;;;;;;;11.00;100.00;94058.59;4800226;29;20055;-59
2023/05/05 00:18:10;;;;;;;12.68;8.57;;;;;;;11.02;100.00;94066.44;4801120;29;20099;-62
2023/05/05 00:20:37;;;;;;;12.30;8.00;;;;;;;11.03;100.00;94059.72;4800329;29;20450;-62
2023/05/05 00:23:04;;;;;;;11.88;8.07;;;;;;;11.04;100.00;94058.56;4801367;29;20058;-58
2023/05/05 00:25:30;;;;;;;12.63;8.20;;;;;;;11.07;100.00;94057.75;4800143;29;20502;-59
2023/05/05 00:27:57;;;;;;;12.52;8.40;;;;;;;11.17;100.00;94060.31;4800932;29;20058;-60
2023/05/05 00:30:24;;;;;;;11.35;8.13;;;;;;;11.27;100.00;94058.59;4800734;29;20122;-59
2023/05/05 00:32:51;;;;;;;10.93;7.88;;;;;;;11.31;100.00;94055.81;4801053;29;20505;-64
2023/05/05 00:35:17;;;;;;;13.55;8.70;;;;;;;11.30;100.00;94051.50;4801098;29;20070;-59
2023/05/05 00:37:44;;;;;;;12.50;8.13;;;;;;;11.08;100.00;94054.56;4800440;29;20069;-59
2023/05/05 00:40:12;;;;;;;12.52;7.90;;;;;;;11.02;100.00;94041.72;4801190;29;20413;-59
2023/05/05 00:42:41;;;;;;;10.52;7.70;;;;;;;11.06;100.00;94047.94;4800298;29;20412;-62
2023/05/05 00:45:12;;;;;;;12.65;8.93;;;;;;;11.14;100.00;94050.16;4800936;29;20050;-59
2023/05/05 00:47:41;;;;;;;13.48;9.68;;;;;;;11.08;100.00;94051.81;4800319;29;20047;-59
2023/05/05 00:50:09;;;;;;;12.20;8.70;;;;;;;11.09;100.00;94047.13;4801163;29;20047;-59
2023/05/05 00:52:37;;;;;;;12.43;8.35;;;;;;;11.00;100.00;94050.38;4800408;29;20132;-59
2023/05/05 00:55:04;;;;;;;11.98;8.95;;;;;;;11.07;100.00;94060.50;4772955;29;20046;-59
2023/05/05 00:57:32;;;;;;;11.68;8.20;;;;;;;11.08;100.00;94054.56;4799985;29;20054;-60
2023/05/05 01:00:00;;;;;;;14.15;8.70;;;;;;;11.12;100.00;94055.28;4800731;29;20605;-60
2023/05/05 01:02:26;;;;;;;13.83;9.50;;;;;;;10.53;100.00;94059.25;4799211;29;20419;-62
2023/05/05 01:04:54;;;;;;;12.70;9.00;;;;;;;10.50;100.00;94067.50;4800773;29;20422;-59
2023/05/05 01:07:57;;;;;;;12.65;9.43;;;;;;;10.50;100.00;94054.59;4800945;29;20424;-59
2023/05/05 01:10:33;;;;;;;12.60;8.80;;;;;;;10.71;100.00;94058.25;4755870;29;20791;-57
2023/05/05 01:13:02;;;;;;;14.25;8.75;;;;;;;10.82;100.00;94049.84;4800473;29;20390;-59
2023/05/05 01:15:31;;;;;;;12.73;9.03;;;;;;;10.79;100.00;94051.47;4800011;29;20069;-61
2023/05/05 01:18:02;;;;;;;12.77;9.00;;;;;;;10.83;100.00;94057.69;4800671;29;20478;-58
2023/05/05 01:20:52;;;;;;;13.23;9.38;;;;;;;10.84;100.00;94052.97;4783739;29;20516;-66
2023/05/05 01:23:41;;;;;;;11.68;8.07;;;;;;;10.84;100.00;94045.50;4800857;29;20070;-62
2023/05/05 01:26:45;;;;;;;11.68;7.88;;;;;;;10.82;100.00;94049.84;4782998;29;20693;-60
2023/05/05 01:29:30;;;;;;;12.53;8.50;;;;;;;10.84;100.00;94052.97;4799908;29;20088;-60
2023/05/05 01:32:23;;;;;;;14.88;9.60;;;;;;;10.86;100.00;94054.09;4803590;29;20640;-60
2023/05/05 01:34:54;;;;;;;13.15;8.65;;;;;;;10.89;100.00;94058.00;4803146;29;20670;-59
2023/05/05 01:37:32;;;;;;;14.50;8.63;;;;;;;10.89;100.00;94055.25;4804397;29;20323;-60
2023/05/05 01:40:04;;;;;;;13.07;8.75;;;;;;;10.81;100.00;94060.06;4803246;29;21625;-63
2023/05/05 01:42:34;;;;;;;14.57;8.90;;;;;;;10.68;100.00;94057.06;4787038;29;20110;-60
2023/05/05 01:45:03;;;;;;;15.65;9.50;;;;;;;10.66;100.00;94050.47;4804190;29;20408;-60
2023/05/05 01:47:31;;;;;;;13.75;9.35;;;;;;;10.65;100.00;94057.91;4803485;29;20047;-66
2023/05/05 01:49:59;;;;;;;21.45;12.95;;;;;;;10.53;100.00;94055.72;4803840;29;20051;-60
2023/05/05 01:52:28;;;;;;;15.85;10.40;;;;;;;10.51;100.00;94060.84;4787097;29;20059;-60
2023/05/05 01:54:56;;;;;;;16.57;10.10;;;;;;;10.55;100.00;94056.88;4803296;29;20132;-60
2023/05/05 01:57:25;;;;;;;14.02;9.77;;;;;;;10.61;100.00;94057.19;4803594;29;20055;-59
2023/05/05 01:59:53;;;;;;;14.10;9.20;;;;;;;10.64;100.00;94063.81;4802759;29;20549;-60
2023/05/05 02:02:21;;;;;;;15.13;9.20;;;;;;;10.63;100.00;94062.28;4802201;29;20065;-60
2023/05/05 02:04:49;;;;;;;14.15;8.95;;;;;;;10.44;100.00;94064.44;4803025;29;20051;-63
2023/05/05 02:07:18;;;;;;;15.53;9.37;;;;;;;10.23;100.00;94068.19;4803871;29;20515;-60
2023/05/05 02:09:46;;;;;;;15.23;9.65;;;;;;;10.17;100.00;94064.34;4802710;29;20055;-61
2023/05/05 02:12:15;;;;;;;14.55;9.82;;;;;;;10.23;100.00;94067.44;4803682;29;20074;-59
2023/05/05 02:14:43;;;;;;;12.85;9.48;;;;;;;10.28;100.00;94065.03;4802687;29;20107;-60
2023/05/05 02:17:11;;;;;;;13.45;9.05;;;;;;;10.28;100.00;94067.75;4803162;29;20050;-60
2023/05/05 02:19:42;;;;;;;14.43;9.27;;;;;;;10.26;100.00;94072.09;4802174;29;20054;-59
2023/05/05 02:22:11;;;;;;;15.15;9.70;;;;;;;10.22;100.00;94083.09;4803371;29;20084;-59
2023/05/05 02:24:37;;;;;;;21.95;14.05;;;;;;;10.21;100.00;94076.06;4802407;29;20049;-59
2023/05/05 02:27:07;;;;;;;24.63;15.50;;;;;;;10.21;100.00;94081.56;4803258;29;20195;-61
2023/05/05 02:29:38;;;;;;;17.85;11.63;;;;;;;10.24;100.00;94078.00;4802553;29;20466;-60
2023/05/05 02:32:13;;;;;;;16.83;10.43;;;;;;;10.23;100.00;94075.66;4802802;29;20054;-62
2023/05/05 02:34:41;;;;;;;14.05;9.50;;;;;;;10.19;100.00;94078.44;4802311;29;20067;-60
2023/05/05 02:37:11;;;;;;;15.65;9.52;;;;;;;10.12;100.00;94079.31;4803383;29;20061;-60
2023/05/05 02:39:46;;;;;;;14.70;9.13;;;;;;;10.11;100.00;94071.47;4802091;29;20039;-59
2023/05/05 02:42:20;;;;;;;15.40;9.65;;;;;;;10.22;100.00;94079.56;4786702;29;20115;-60
2023/05/05 02:44:50;;;;;;;13.57;9.90;;;;;;;10.24;100.00;94080.75;4802534;29;20555;-61
2023/05/05 02:47:16;;;;;;;13.50;9.38;;;;;;;10.36;100.00;94080.22;4803002;29;20054;-60
2023/05/05 02:49:43;;;;;;;13.00;9.27;;;;;;;10.45;100.00;94074.25;4802483;29;20059;-60
2023/05/05 02:52:10;;;;;;;13.60;9.15;;;;;;;10.53;100.00;94072.19;4803052;29;20055;-59
2023/05/05 02:54:37;;;;;;;13.93;9.45;;;;;;;10.56;100.00;94063.91;4801955;29;20047;-60
2023/05/05 02:57:03;;;;;;;13.83;9.23;;;;;;;10.53;100.00;94067.47;4803141;29;20072;-60
2023/05/05 02:59:55;;;;;;;14.48;9.90;;;;;;;10.43;100.00;94059.38;4802389;29;20492;-63
2023/05/05 03:02:48;;;;;;;13.73;9.90;;;;;;;10.43;100.00;94062.91;4801578;29;20043;-59
2023/05/05 03:05:19;;;;;;;14.18;9.82;;;;;;;10.51;100.00;94064.38;4801954;29;20055;-59
2023/05/05 03:08:13;;;;;;;13.77;9.93;;;;;;;10.59;100.00;94057.59;4801761;29;20061;-60
2023/05/05 03:11:06;;;;;;;15.43;9.70;;;;;;;10.68;100.00;94059.81;4785958;29;20058;-63
2023/05/05 03:13:35;;;;;;;15.98;9.30;;;;;;;10.68;100.00;94057.06;4800034;29;20063;-60
2023/05/05 03:16:05;;;;;;;14.40;10.10;;;;;;;10.43;100.00;94062.13;4802418;29;20387;-60
2023/05/05 03:18:39;;;;;;;16.33;10.02;;;;;;;10.24;100.00;94063.50;4802163;29;20673;-60
2023/05/05 03:21:08;;;;;;;14.57;9.88;;;;;;;10.28;100.00;94058.75;4802157;29;20095;-59
2023/05/05 03:23:35;;;;;;;14.63;10.43;;;;;;;10.36;100.00;94049.25;4801721;29;20063;-66
2023/05/05 03:26:02;;;;;;;15.85;9.75;;;;;;;10.47;100.00;94060.88;4802244;29;20055;-59
2023/05/05 03:28:29;;;;;;;14.07;9.82;;;;;;;10.56;100.00;94063.13;4802132;29;20057;-63
2023/05/05 03:30:56;;;;;;;14.00;9.00;;;;;;;10.56;100.00;94055.69;4801801;29;20578;-62
2023/05/05 03:33:22;;;;;;;13.90;9.70;;;;;;;10.56;100.00;94057.63;4802187;29;20451;-62
2023/05/05 03:35:49;;;;;;;13.13;9.57;;;;;;;10.51;100.00;94066.34;4785209;29;20110;-62
2023/05/05 03:38:16;;;;;;;14.65;9.82;;;;;;;10.50;100.00;94062.81;4785838;29;20077;-59
2023/05/05 03:40:43;;;;;;;13.40;9.65;;;;;;;10.45;100.00;94068.75;4801452;29;20069;-59
2023/05/05 03:43:10;;;;;;;16.20;9.80;;;;;;;10.51;100.00;94072.59;4802057;29;20061;-59
2023/05/05 03:45:37;;;;;;;17.05;10.57;;;;;;;10.56;100.00;94063.91;4800916;29;20596;-66
2023/05/05 03:48:04;;;;;;;14.00;9.40;;;;;;;10.67;100.00;94066.53;4801954;29;20039;-60
2023/05/05 03:50:31;;;;;;;13.63;9.43;;;;;;;10.74;100.00;94069.16;4801541;29;20050;-60
2023/05/05 03:52:58;;;;;;;14.52;10.05;;;;;;;10.78;100.00;94064.41;4801642;29;20047;-59
2023/05/05 03:55:25;;;;;;;14.10;9.55;;;;;;;10.77;100.00;94062.84;4801274;29;20055;-57
2023/05/05 03:57:51;;;;;;;14.30;9.90;;;;;;;10.75;100.00;94059.75;4801535;29;20073;-60
2023/05/05 04:00:18;;;;;;;18.87;10.30;;;;;;;10.71;100.00;94061.75;4800494;29;20047;-60
2023/05/05 04:02:45;;;;;;;14.27;9.85;;;;;;;10.68;100.00;94064.53;4799483;29;20059;-63
2023/05/05 04:05:12;;;;;;;16.33;10.65;;;;;;;10.42;100.00;94058.59;4785566;29;20055;-60
2023/05/05 04:07:38;;;;;;;19.00;11.05;;;;;;;10.35;100.00;94077.91;4800692;29;20065;-66
2023/05/05 04:10:06;;;;;;;17.73;10.15;;;;;;;10.37;100.00;94068.06;4785634;29;20055;-60
2023/05/05 04:12:33;;;;;;;15.87;9.77;;;;;;;10.17;100.00;94080.81;4801006;29;20118;-61
2023/05/05 04:14:59;;;;;;;14.55;10.10;;;;;;;10.29;100.00;94082.25;4801650;29;20537;-60
2023/05/05 04:17:26;;;;;;;14.50;9.77;;;;;;;10.41;100.00;94089.19;4800702;29;20051;-60
2023/05/05 04:19:53;;;;;;;15.52;10.30;;;;;;;10.41;100.00;94073.50;4784939;29;20454;-63
2023/05/05 04:22:19;;;;;;;14.85;10.13;;;;;;;10.56;100.00;94082.34;4801573;29;20088;-59
2023/05/05 04:24:46;;;;;;;14.80;9.80;;;;;;;10.64;100.00;94077.53;4800398;29;20066;-61
2023/05/05 04:27:13;;;;;;;15.35;10.15;;;;;;;10.65;100.00;94079.09;4801187;29;20386;-59
2023/05/05 04:29:40;;;;;;;16.20;10.43;;;;;;;10.76;100.00;94083.25;4800685;29;20054;-65
2023/05/05 04:32:06;;;;;;;15.52;10.00;;;;;;;10.78;100.00;94077.34;4784974;29;20425;-60
2023/05/05 04:34:33;;;;;;;15.75;10.45;;;;;;;10.42;100.00;94083.28;4800343;29;20065;-59
2023/05/05 04:37:00;;;;;;;17.60;10.53;;;;;;;10.22;100.00;94090.53;4800685;29;20077;-59
2023/05/05 04:39:27;;;;;;;15.05;10.27;;;;;;;10.35;100.00;94086.91;4784299;29;20094;-59
2023/05/05 04:41:53;;;;;;;13.90;9.68;;;;;;;10.46;100.00;94086.00;4800731;29;20055;-62
2023/05/05 04:44:20;;;;;;;16.65;9.93;;;;;;;10.67;100.00;94085.72;4800906;29;20046;-62
2023/05/05 04:46:47;;;;;;;16.23;10.80;;;;;;;10.75;100.00;94089.16;4799715;29;20505;-59
2023/05/05 04:49:13;;;;;;;15.90;10.03;;;;;;;10.72;100.00;94087.22;4784307;29;20050;-59
2023/05/05 04:51:41;;;;;;;19.23;10.38;;;;;;;10.61;100.00;94092.09;4800094;29;20410;-66
2023/05/05 04:54:07;;;;;;;14.57;10.43;;;;;;;10.39;100.00;94092.34;4800657;29;20455;-60
2023/05/05 04:56:34;;;;;;;19.92;10.55;;;;;;;10.57;100.00;94087.41;4800187;29;20106;-63
2023/05/05 04:59:01;;;;;;;17.17;11.55;;;;;;;10.78;100.00;94089.13;4800384;29;20168;-60
2023/05/05 05:01:28;;;;;;;16.80;10.80;;;;;;;10.97;100.00;94092.41;4799933;29;20122;-59
2023/05/05 05:03:54;;;;;;;17.27;10.73;;;;;;;11.07;100.00;94102.44;4800516;29;20497;-60
2023/05/05 05:06:21;;;;;;;15.00;10.27;;;;;;;10.98;100.00;94091.97;4805990;29;20126;-61
2023/05/05 05:08:48;;;;;;;16.88;10.82;;;;;;;11.13;100.00;94094.53;4805798;29;20046;-60
2023/05/05 05:11:15;;;;;;;15.00;10.05;;;;;;;11.27;100.00;94094.31;4806801;29;20057;-63
2023/05/05 05:13:41;;;;;;;16.80;11.03;;;;;;;11.20;100.00;94102.66;4805929;29;20050;-66
2023/05/05 05:16:08;;;;;;;16.67;10.90;;;;;;;11.44;100.00;94097.19;4806173;29;20107;-59
2023/05/05 05:18:35;;;;;;;20.33;10.40;;;;;;;11.62;100.00;94103.19;4806158;29;20437;-59
2023/05/05 05:21:02;;;;;;;16.23;9.93;;;;;;;11.58;100.00;94108.72;4805554;29;20452;-63
2023/05/05 05:23:29;;;;;;;14.68;10.60;;;;;;;11.43;100.00;94103.88;4806558;29;20054;-59
2023/05/05 05:25:56;;;;;;;15.73;10.60;;;;;;;11.27;100.00;94107.25;4806524;29;20430;-63
2023/05/05 05:28:22;;;;;;;18.85;10.55;;;;;;;11.45;100.00;94110.53;4806191;29;20055;-59
2023/05/05 05:30:49;;;;;;;18.75;10.60;;;;;;;11.56;100.00;94099.34;4788939;29;20090;-59
2023/05/05 05:33:17;;;;;;;15.90;10.70;;;;;;;11.62;100.00;94105.16;4806349;29;20788;-61
2023/05/05 05:35:44;;;;;;;16.65;10.15;;;;;;;11.73;100.00;94101.06;4805058;29;20409;-63
2023/05/05 05:38:11;;;;;;;14.93;10.20;;;;;;;11.68;100.00;94107.00;4806043;29;20054;-60
2023/05/05 05:40:38;;;;;;;15.18;10.65;;;;;;;11.24;100.00;94116.34;4805412;29;20115;-59
2023/05/05 05:43:05;;;;;;;14.98;10.82;;;;;;;10.99;100.00;94111.97;4805823;29;20107;-59
2023/05/05 05:45:31;;;;;;;20.38;12.18;;;;;;;11.25;100.00;94118.69;4789869;29;20046;-58
2023/05/05 05:47:58;;;;;;;23.05;16.85;;;;;;;11.44;100.00;94121.94;4805670;29;20131;-62
2023/05/05 05:50:27;;;;;;;16.27;11.50;;;;;;;11.48;100.00;94126.19;4805891;29;20069;-65
2023/05/05 05:52:54;;;;;;;21.13;14.85;;;;;;;11.60;100.00;94117.34;4805655;29;20059;-63
2023/05/05 05:55:21;;;;;;;17.83;13.07;;;;;;;11.39;100.00;94123.19;4806121;29;20084;-65
2023/05/05 05:57:48;;;;;;;19.45;12.65;;;;;;;11.52;100.00;94117.88;4805195;29;20419;-61
2023/05/05 06:00:15;;;;;;;18.67;12.27;;;;;;;11.84;100.00;94122.84;4804840;29;20070;-61
2023/05/05 06:02:41;;;;;;;17.57;12.20;;;;;;;11.90;100.00;94123.19;4805286;29;20525;-62
2023/05/05 06:05:09;;;;;;;21.05;12.80;;;;;;;11.81;100.00;94131.94;4789867;29;20063;-62
2023/05/05 06:07:36;;;;;;;16.95;11.35;;;;;;;12.03;100.00;94129.63;4804329;29;20073;-63
2023/05/05 06:10:03;;;;;;;23.15;12.68;;;;;;;12.11;100.00;94127.53;4805556;29;20492;-66
2023/05/05 06:12:50;;;;;;;21.92;11.82;;;;;;;12.07;100.00;94132.31;4804736;29;21304;-64
2023/05/05 06:15:16;;;;;;;21.37;12.03;;;;;;;12.14;100.00;94130.22;4805958;29;20043;-60
2023/05/05 06:17:43;;;;;;;24.20;12.48;;;;;;;12.32;100.00;94137.38;4801690;29;20095;-60
2023/05/05 06:20:12;;;;;;;21.85;13.30;;;;;;;11.82;100.00;94138.22;4802661;29;20706;-60
2023/05/05 06:22:39;;;;;;;23.85;13.60;;;;;;;11.52;100.00;94140.63;4802200;29;20505;-62
2023/05/05 06:25:06;;;;;;;20.42;12.73;;;;;;;11.20;100.00;94143.84;4802830;29;20067;-61
2023/05/05 06:27:33;;;;;;;21.63;13.30;;;;;;;11.08;100.00;94141.69;4802484;29;20055;-63
2023/05/05 06:30:00;;;;;;;23.55;13.70;;;;;;;11.49;100.00;94140.69;4803104;29;20055;-61
2023/05/05 06:32:26;;;;;;;20.08;12.18;;;;;;;12.12;100.00;94138.13;4802991;29;20068;-60
2023/05/05 06:34:53;;;;;;;19.63;11.95;;;;;;;12.79;100.00;94137.25;4803390;29;20058;-60
2023/05/05 06:37:20;;;;;;;18.67;11.90;;;;;;;12.97;100.00;94147.91;4803092;29;20088;-60
2023/05/05 06:39:46;;;;;;;20.13;12.53;;;;;;;13.04;100.00;94147.78;4802119;29;20055;-65
2023/05/05 06:42:13;;;;;;;18.83;12.30;;;;;;;13.05;100.00;94149.31;4787210;29;20075;-60
2023/05/05 06:44:40;;;;;;;17.33;10.95;;;;;;;13.36;100.00;94143.56;4786617;29;20049;-60
2023/05/05 06:47:06;;;;;;;20.00;11.10;;;;;;;13.23;100.00;94146.19;4802992;29;20055;-59
2023/05/05 06:49:33;;;;;;;21.85;13.88;;;;;;;12.78;100.00;94153.00;4786545;29;20051;-60
2023/05/05 06:52:00;;;;;;;22.63;12.13;;;;;;;12.57;100.00;94156.19;4802975;29;20055;-58
2023/05/05 06:54:27;;;;;;;16.73;11.13;;;;;;;12.42;100.00;94158.44;4802627;29;20887;-60
2023/05/05 06:56:53;;;;;;;21.45;12.27;;;;;;;12.73;100.00;94158.22;4803227;29;20055;-59
2023/05/05 06:59:20;;;;;;;21.15;12.52;;;;;;;12.88;100.00;94167.00;4803124;29;20051;-59
2023/05/05 07:01:47;;;;;;;19.20;11.95;;;;;;;12.73;100.00;94160.97;4801456;29;20051;-59
2023/05/05 07:04:13;;;;;;;15.97;10.60;;;;;;;12.89;100.00;94163.03;4803272;29;20061;-62
2023/05/05 07:06:40;;;;;;;15.07;10.00;;;;;;;12.98;100.00;94155.75;4802637;29;20047;-60
2023/05/05 07:09:07;;;;;;;22.33;11.10;;;;;;;12.79;100.00;94162.03;4786668;29;20098;-59
2023/05/05 07:11:33;;;;;;;15.43;9.95;;;;;;;12.74;100.00;94163.31;4802682;29;20050;-59
2023/05/05 07:14:01;;;;;;;16.90;10.50;;;;;;;12.99;100.00;94156.53;4786536;29;20050;-59
2023/05/05 07:16:27;;;;;;;20.37;10.70;;;;;;;13.22;100.00;94157.63;4786136;29;20077;-59
2023/05/05 07:18:54;;;;;;;13.43;9.35;;;;;;;13.14;100.00;94151.50;4801954;29;20052;-60
2023/05/05 07:21:21;;;;;;;16.60;9.88;;;;;;;13.02;100.00;94147.44;4786680;29;20051;-59
2023/05/05 07:23:47;;;;;;;16.90;10.25;;;;;;;13.18;100.00;94138.44;4801814;29;20061;-59
2023/05/05 07:26:14;;;;;;;18.45;10.35;;;;;;;13.27;100.00;94135.09;4802843;29;20065;-59
2023/05/05 07:28:42;;;;;;;16.27;9.67;;;;;;;13.89;100.00;94136.03;4801920;29;20053;-59
2023/05/05 07:31:09;;;;;;;15.82;9.57;;;;;;;14.19;100.00;94125.84;4802380;29;20086;-58
2023/05/05 07:33:36;;;;;;;12.88;9.25;;;;;;;14.45;100.00;94125.97;4801717;29;20122;-60
2023/05/05 07:36:03;;;;;;;12.63;8.20;;;;;;;14.88;100.00;94119.28;4802060;29;20470;-59
2023/05/05 07:38:30;;;;;;;15.98;10.93;;;;;;;15.51;100.00;94107.53;4801860;29;20046;-59
2023/05/05 07:40:57;;;;;;;11.80;8.37;;;;;;;16.43;100.00;94109.69;4801503;29;20069;-61
2023/05/05 07:43:23;;;;;;;10.30;7.63;;;;;;;17.84;100.00;94104.06;4801764;29;20051;-59
2023/05/05 07:45:50;;;;;;;10.30;6.47;;;;;;;20.13;100.00;94100.72;4801242;29;20113;-62
2023/05/05 07:48:17;;;;;;;9.27;5.95;;;;;;;19.68;100.00;94108.00;4802051;29;20086;-60
2023/05/05 07:50:43;;;;;;;8.65;5.38;;;;;;;20.41;100.00;94101.31;4785826;29;20042;-63
2023/05/05 07:53:10;;;;;;;9.73;5.73;;;;;;;19.42;100.00;94114.00;4801742;29;20487;-60
2023/05/05 07:55:41;;;;;;;7.25;4.82;;;;;;;20.29;98.71;94105.09;4801840;29;20066;-63
2023/05/05 07:58:09;;;;;;;8.32;5.20;;;;;;;19.61;100.00;94111.91;4801941;29;20078;-60
2023/05/05 08:00:37;;;;;;;9.77;5.90;;;;;;;18.71;100.00;94107.59;4801596;29;20050;-59
2023/05/05 08:03:04;;;;;;;9.13;5.20;;;;;;;18.21;100.00;94103.38;4801924;29;20492;-59
2023/05/05 08:05:31;;;;;;;12.50;7.20;;;;;;;18.08;100.00;94106.31;4801591;29;20106;-59
2023/05/05 08:07:58;;;;;;;12.93;7.28;;;;;;;17.49;100.00;94106.25;4785319;29;20047;-61
2023/05/05 08:10:25;;;;;;;9.70;6.47;;;;;;;18.69;100.00;94100.94;4799827;29;20077;-58
2023/05/05 08:12:53;;;;;;;9.85;6.80;;;;;;;18.88;100.00;94105.28;4801622;29;20553;-63
2023/05/05 08:15:20;;;;;;;15.00;6.82;;;;;;;19.14;100.00;94105.72;4802055;29;20054;-59
2023/05/05 08:17:49;;;;;;;9.77;6.07;;;;;;;19.23;100.00;94102.13;4801194;29;20088;-60
2023/05/05 08:20:19;;;;;;;9.27;6.55;;;;;;;19.12;100.00;94107.44;4802092;29;20051;-60
2023/05/05 08:22:46;;;;;;;10.13;6.40;;;;;;;18.93;100.00;94109.44;4801386;29;20053;-63
2023/05/05 08:25:13;;;;;;;9.70;6.10;;;;;;;19.01;100.00;94107.13;4801730;29;20050;-59
2023/05/05 08:27:41;;;;;;;8.57;5.70;;;;;;;19.49;100.00;94112.88;4801153;29;20133;-60
2023/05/05 08:30:08;;;;;;;8.47;6.23;;;;;;;18.96;100.00;94100.19;4801466;29;20069;-62
2023/05/05 08:32:35;;;;;;;8.68;5.90;;;;;;;19.43;100.00;94109.97;4801242;29;20047;-59
2023/05/05 08:35:04;;;;;;;10.13;5.78;;;;;;;18.64;100.00;94112.69;4801617;29;20131;-59
2023/05/05 08:37:31;;;;;;;8.82;5.78;;;;;;;17.79;100.00;94107.44;4801096;29;20047;-59
2023/05/05 08:39:58;;;;;;;11.52;6.07;;;;;;;17.73;100.00;94107.25;4784138;29;20057;-62
2023/05/05 08:42:24;;;;;;;10.83;5.90;;;;;;;17.88;100.00;94101.16;4800732;29;20109;-56
2023/05/05 08:45:03;;;;;;;6.38;4.82;;;;;;;18.04;100.00;94097.34;4801140;29;20145;-62
2023/05/05 08:47:31;;;;;;;9.40;4.97;;;;;;;17.01;100.00;94098.13;4800642;29;20046;-59
2023/05/05 08:49:58;;;;;;;7.53;4.18;;;;;;;18.11;100.00;94097.03;4801125;29;20050;-59
2023/05/05 08:52:27;;;;;;;8.52;4.43;;;;;;;18.49;100.00;94096.63;4801110;29;20162;-57
2023/05/05 08:55:05;;;;;;;9.60;4.37;;;;;;;19.38;100.00;94091.13;4801117;29;20046;-60
2023/05/05 08:57:40;;;;;;;11.70;5.35;;;;;;;19.28;100.00;94100.75;4788990;29;20165;-60
2023/05/05 09:00:08;;;;;;;6.30;4.47;;;;;;;19.24;100.00;94100.91;4800888;29;20059;-61
2023/05/05 09:02:35;;;;;;;11.13;5.25;;;;;;;20.46;96.52;94085.94;4800660;29;20051;-60
2023/05/05 09:05:05;;;;;;;10.23;5.50;;;;;;;20.41;97.47;94098.53;4784760;29;20112;-59
2023/05/05 09:07:33;;;;;;;7.90;4.90;;;;;;;21.16;92.40;94091.09;4800639;29;20059;-60
2023/05/05 09:10:03;;;;;;;8.57;5.15;;;;;;;22.11;86.26;94096.66;4799095;29;20051;-60
2023/05/05 09:12:30;;;;;;;8.50;5.38;;;;;;;21.47;88.06;94079.47;4800635;29;20047;-60
2023/05/05 09:14:57;;;;;;;11.68;5.28;;;;;;;21.96;87.81;94085.53;4800478;29;20051;-60
2023/05/05 09:17:25;;;;;;;10.40;5.80;;;;;;;20.47;94.94;94091.03;4800356;29;20050;-58
2023/05/05 09:20:03;;;;;;;8.40;4.80;;;;;;;20.94;92.40;94083.09;4800830;29;20344;-61
2023/05/05 09:22:37;;;;;;;8.88;5.25;;;;;;;20.35;99.69;94086.47;4800484;29;20082;-60
2023/05/05 09:25:05;;;;;;;7.15;5.35;;;;;;;21.41;89.85;94084.16;4800931;29;20074;-60
2023/05/05 09:27:40;;;;;;;7.45;4.90;;;;;;;21.69;87.30;94084.66;4800847;29;20096;-60
2023/05/05 09:30:09;;;;;;;7.78;5.45;;;;;;;20.99;85.75;94088.00;4800767;29;20423;-60
2023/05/05 09:33:02;;;;;;;10.93;5.40;;;;;;;21.29;86.46;94080.41;4800620;29;20394;-59
2023/05/05 09:35:48;;;;;;;6.97;4.70;;;;;;;23.68;76.38;94080.09;4782181;29;20179;-60
2023/05/05 09:38:15;;;;;;;7.50;5.03;;;;;;;20.29;85.84;94071.66;4800262;29;20408;-60
2023/05/05 09:40:46;;;;;;;8.45;4.40;;;;;;;21.29;80.41;94068.47;4784458;29;20050;-60
2023/05/05 09:43:14;;;;;;;5.53;3.85;;;;;;;21.71;79.54;94067.38;4800629;29;20043;-60
2023/05/05 09:45:42;;;;;;;5.07;3.80;;;;;;;24.29;67.73;94062.94;4800238;29;20107;-61
2023/05/05 09:48:30;;;;;;;4.88;3.35;;;;;;;24.07;62.50;94060.78;4800594;29;20038;-60
2023/05/05 09:50:58;;;;;;;6.97;3.30;;;;;;;26.87;54.84;94060.78;4800664;29;20047;-61
2023/05/05 09:53:25;;;;;;;8.48;3.30;;;;;;;27.15;49.98;94054.22;4787458;29;20059;-60
2023/05/05 09:55:57;;;;;;;4.25;2.67;;;;;;;26.64;49.55;94045.25;4788140;29;20047;-62
2023/05/05 09:58:25;;;;;;;6.73;2.67;;;;;;;27.40;46.57;94041.00;4803893;29;20047;-60
2023/05/05 10:00:53;;;;;;;5.50;2.60;;;;;;;27.98;44.49;94050.56;4803372;29;20689;-61
2023/05/05 10:03:20;;;;;;;4.38;2.80;;;;;;;29.84;40.92;94037.66;4803891;29;20054;-61
2023/05/05 10:05:49;;;;;;;4.63;2.72;;;;;;;30.19;39.46;94032.16;4803426;29;20053;-63
2023/05/05 10:08:17;;;;;;;5.05;2.70;;;;;;;29.87;38.55;94039.41;4803256;29;20072;-64
2023/05/05 10:10:54;;;;;;;11.57;3.30;;;;;;;26.70;42.91;94031.91;4791203;29;20090;-61
2023/05/05 10:13:23;;;;;;;6.38;3.35;;;;;;;25.52;45.97;94036.50;4803436;29;20049;-61
2023/05/05 10:15:55;;;;;;;5.70;3.30;;;;;;;23.04;58.29;94040.88;4791322;29;20880;-60
2023/05/05 10:18:24;;;;;;;4.32;2.80;;;;;;;24.31;54.44;94037.22;4803677;29;20466;-60
2023/05/05 10:20:57;;;;;;;4.95;2.95;;;;;;;25.14;53.20;94021.13;4802990;29;21354;-61
2023/05/05 10:23:31;;;;;;;4.93;3.27;;;;;;;22.42;58.01;94022.63;4803743;29;20047;-61
2023/05/05 10:26:03;;;;;;;5.75;2.90;;;;;;;23.04;58.38;94018.47;4802842;29;20470;-60
2023/05/05 10:28:40;;;;;;;5.13;2.97;;;;;;;23.18;59.91;94021.63;4803353;29;20043;-61
2023/05/05 10:31:15;;;;;;;5.20;3.20;;;;;;;24.52;55.33;94016.13;4786969;29;20058;-61
2023/05/05 10:34:02;;;;;;;4.47;3.10;;;;;;;25.83;49.52;94011.44;4802743;29;20053;-60
2023/05/05 10:36:30;;;;;;;5.07;2.90;;;;;;;24.92;51.92;94007.84;4803360;29;20045;-60
2023/05/05 10:38:59;;;;;;;5.80;3.20;;;;;;;25.00;51.80;94000.44;4803280;29;20164;-61
2023/05/05 10:41:25;;;;;;;6.13;3.30;;;;;;;22.51;57.38;94006.44;4802776;29;20493;-58
2023/05/05 10:43:56;;;;;;;5.18;3.45;;;;;;;21.45;63.65;94005.81;4787061;29;20054;-61
2023/05/05 10:46:25;;;;;;;4.85;3.03;;;;;;;24.35;55.78;93990.06;4802513;29;20482;-60
2023/05/05 10:49:27;;;;;;;5.57;3.20;;;;;;;21.37;61.46;94001.84;4802333;29;20042;-63
2023/05/05 10:51:59;;;;;;;4.65;3.22;;;;;;;23.30;57.05;93987.66;4793030;29;20050;-60
2023/05/05 10:54:38;;;;;;;6.28;3.20;;;;;;;24.47;54.83;93988.06;4801154;29;20086;-58
2023/05/05 10:57:09;;;;;;;5.50;3.30;;;;;;;24.63;52.76;93980.97;4803071;29;20053;-61
2023/05/05 10:59:36;;;;;;;6.47;3.60;;;;;;;25.14;51.36;93979.00;4802714;29;20055;-61
2023/05/05 11:02:21;;;;;;;6.77;2.97;;;;;;;25.43;52.48;93974.19;4802299;29;20472;-60
2023/05/05 11:05:05;;;;;;;4.03;2.80;;;;;;;25.77;51.03;93969.28;4800158;29;20046;-61
2023/05/05 11:07:33;;;;;;;5.13;2.72;;;;;;;25.99;48.20;93970.53;4791980;29;20058;-61
2023/05/05 11:10:02;;;;;;;4.38;2.90;;;;;;;26.12;48.24;93965.13;4803319;29;20054;-65
2023/05/05 11:12:30;;;;;;;5.10;3.10;;;;;;;26.41;47.80;93960.91;4802676;29;20509;-62
2023/05/05 11:15:22;;;;;;;6.87;3.13;;;;;;;26.60;45.91;93954.69;4803275;29;20169;-62
2023/05/05 11:17:49;;;;;;;6.97;3.08;;;;;;;23.00;53.56;93953.53;4801959;29;20055;-65
2023/05/05 11:20:17;;;;;;;5.22;3.58;;;;;;;21.65;58.49;93950.00;4802828;29;20063;-62
2023/05/05 11:23:02;;;;;;;4.57;3.00;;;;;;;23.83;52.83;93945.47;4802608;29;20039;-61
2023/05/05 11:25:39;;;;;;;4.43;3.08;;;;;;;25.19;50.15;93943.78;4802196;29;20043;-61
2023/05/05 11:28:11;;;;;;;4.93;2.80;;;;;;;25.77;48.02;93946.03;4803285;29;20110;-61
2023/05/05 11:30:53;;;;;;;4.72;2.90;;;;;;;25.36;48.19;93930.53;4802380;29;20050;-62